Time;durP1;ratioP1;P1;durP2;ratioP2;P2;SDS_P1;SDS_P2;PMS_P1;PMS_P2;Temp;Humidity;BMP_temperature;BMP_pressure;BME280_temperature;BME280_humidity;BME280_pressure;Samples;Min_cycle;Max_cycle;Signal;HPM_P1;HPM_P2
2023/10/01 00:01:36;;;;;;;7.75;4.50;;;;;;;13.87;nan;100468.13;5011860;28;20263;-77
2023/10/01 00:04:04;;;;;;;6.30;3.30;;;;;;;13.77;nan;100467.88;5013631;28;20218;-77
2023/10/01 00:06:29;;;;;;;7.40;4.75;;;;;;;13.70;nan;100461.28;5013085;28;20199;-77
2023/10/01 00:08:57;;;;;;;4.27;3.87;;;;;;;13.64;nan;100480.16;5016491;28;20816;-77
2023/10/01 00:11:23;;;;;;;7.20;5.22;;;;;;;13.59;nan;100480.44;5012766;28;20194;-77
2023/10/01 00:13:49;;;;;;;10.02;4.93;;;;;;;13.60;nan;100483.91;5013774;28;20286;-78
2023/10/01 00:16:15;;;;;;;8.80;4.73;;;;;;;13.64;nan;100483.63;5013511;28;20324;-77
2023/10/01 00:18:40;;;;;;;7.53;3.80;;;;;;;13.68;nan;100482.47;5014964;28;20888;-77
2023/10/01 00:21:05;;;;;;;6.37;4.33;;;;;;;13.71;nan;100482.28;5016042;28;20241;-77
2023/10/01 00:23:31;;;;;;;8.60;5.37;;;;;;;13.73;nan;100472.47;5016895;28;20253;-78
2023/10/01 00:25:57;;;;;;;6.10;3.90;;;;;;;13.77;nan;100477.56;5013567;28;20210;-77
2023/10/01 00:28:23;;;;;;;5.43;3.55;;;;;;;13.80;nan;100478.25;5013086;28;20532;-77
2023/10/01 00:30:48;;;;;;;12.38;4.03;;;;;;;13.82;nan;100478.97;5013069;28;20202;-78
2023/10/01 00:33:15;;;;;;;7.47;4.83;;;;;;;13.82;nan;100463.13;5015004;28;20252;-77
2023/10/01 00:35:41;;;;;;;7.60;5.03;;;;;;;13.82;nan;100465.78;5015132;28;20227;-77
2023/10/01 00:38:07;;;;;;;9.60;6.50;;;;;;;13.84;nan;100468.31;5016334;28;20252;-77
2023/10/01 00:40:33;;;;;;;6.97;5.35;;;;;;;13.83;nan;100467.47;5012283;28;21005;-77
2023/10/01 00:42:58;;;;;;;8.43;5.67;;;;;;;13.80;nan;100464.16;5013836;28;20475;-77
2023/10/01 00:45:23;;;;;;;8.70;5.37;;;;;;;13.77;nan;100465.25;5010559;28;20242;-78
2023/10/01 00:47:51;;;;;;;8.30;5.83;;;;;;;13.74;nan;100465.41;5013269;28;20202;-77
2023/10/01 00:50:21;;;;;;;9.90;6.30;;;;;;;13.75;nan;100461.00;5013322;28;20225;-78
2023/10/01 00:52:49;;;;;;;10.15;5.28;;;;;;;13.74;nan;100470.69;5012217;28;20683;-77
2023/10/01 00:55:15;;;;;;;14.27;6.25;;;;;;;13.75;nan;100466.28;5012286;28;20194;-78
2023/10/01 00:57:41;;;;;;;11.27;6.53;;;;;;;13.71;nan;100471.72;5014569;28;20202;-80
2023/10/01 01:00:09;;;;;;;8.93;5.13;;;;;;;13.65;nan;100463.34;5013287;28;20207;-77
2023/10/01 01:02:37;;;;;;;13.00;5.95;;;;;;;13.61;nan;100467.13;5012084;28;20242;-77
2023/10/01 01:05:19;;;;;;;8.50;5.05;;;;;;;13.58;nan;100464.66;5012587;28;20300;-77
2023/10/01 01:07:47;;;;;;;6.20;4.93;;;;;;;13.56;nan;100461.31;5011153;28;20236;-78
2023/10/01 01:10:18;;;;;;;8.73;5.63;;;;;;;13.58;nan;100464.66;5015544;28;20244;-77
2023/10/01 01:12:53;;;;;;;7.93;5.43;;;;;;;13.58;nan;100470.78;5012433;28;20198;-77
2023/10/01 01:15:21;;;;;;;9.07;5.90;;;;;;;13.58;nan;100464.66;5013699;28;20271;-77
2023/10/01 01:17:48;;;;;;;17.20;5.55;;;;;;;13.57;nan;100465.63;5014613;28;20202;-77
2023/10/01 01:20:13;;;;;;;7.95;4.75;;;;;;;13.55;nan;100470.16;5017844;28;20676;-77
2023/10/01 01:22:51;;;;;;;8.50;4.37;;;;;;;13.52;nan;100465.91;5017815;28;20539;-78
2023/10/01 01:25:20;;;;;;;8.50;4.18;;;;;;;13.44;nan;100463.72;5035014;28;20317;-77
2023/10/01 01:27:48;;;;;;;4.70;3.40;;;;;;;13.36;nan;100460.72;5018071;28;20264;-77
2023/10/01 01:30:18;;;;;;;11.40;4.28;;;;;;;13.31;nan;100457.50;5016469;28;20190;-77
2023/10/01 01:32:45;;;;;;;5.75;4.03;;;;;;;13.30;nan;100455.84;5017205;28;20194;-77
2023/10/01 01:35:10;;;;;;;6.90;3.88;;;;;;;13.32;nan;100458.38;5015591;28;20281;-78
2023/10/01 01:37:46;;;;;;;10.17;5.57;;;;;;;13.32;nan;100464.50;5015711;28;20292;-77
2023/10/01 01:40:36;;;;;;;10.75;5.35;;;;;;;13.32;nan;100461.03;5015024;28;20198;-78
2023/10/01 01:43:04;;;;;;;10.07;4.90;;;;;;;13.32;nan;100461.03;5018814;28;20222;-79
2023/10/01 01:45:33;;;;;;;6.63;4.85;;;;;;;13.32;nan;100453.97;5016692;28;20194;-78
2023/10/01 01:48:21;;;;;;;9.05;5.65;;;;;;;13.31;nan;100457.50;5016776;28;20194;-78
2023/10/01 01:50:47;;;;;;;9.45;5.85;;;;;;;13.25;nan;100456.06;5013170;28;20260;-77
2023/10/01 01:53:13;;;;;;;7.20;5.47;;;;;;;13.20;nan;100452.03;5017524;28;20194;-79
2023/10/01 01:55:38;;;;;;;13.83;5.23;;;;;;;13.16;nan;100453.16;5017159;28;20567;-78
2023/10/01 01:58:08;;;;;;;10.10;5.20;;;;;;;13.12;nan;100454.28;5017489;28;20190;-77
2023/10/01 02:01:00;;;;;;;9.40;5.28;;;;;;;13.10;nan;100451.75;5017054;28;20742;-78
2023/10/01 02:03:22;;;;;;;11.70;5.97;;;;;;;13.04;nan;100455.63;5016003;28;20284;-77
2023/10/01 02:05:47;;;;;;;9.30;4.97;;;;;;;13.01;nan;100452.28;5012727;28;20190;-77
2023/10/01 02:08:34;;;;;;;10.63;5.10;;;;;;;12.99;nan;100459.47;5017043;28;20297;-77
2023/10/01 02:11:04;;;;;;;11.45;6.32;;;;;;;13.00;nan;100450.59;5016538;28;20670;-77
2023/10/01 02:13:33;;;;;;;8.38;5.22;;;;;;;13.01;nan;100450.50;5015877;28;20214;-78
2023/10/01 02:16:18;;;;;;;10.50;5.80;;;;;;;12.98;nan;100440.13;5016505;28;20320;-77
2023/10/01 02:18:56;;;;;;;7.78;4.80;;;;;;;12.91;nan;100449.38;5019242;28;20697;-77
2023/10/01 02:21:42;;;;;;;7.75;4.70;;;;;;;12.86;nan;100432.97;5015890;28;20194;-78
2023/10/01 02:24:13;;;;;;;12.13;4.47;;;;;;;12.85;nan;100436.53;5017756;28;20230;-77
2023/10/01 02:26:39;;;;;;;9.70;6.03;;;;;;;12.85;nan;100439.16;5017909;28;20211;-77
2023/10/01 02:29:05;;;;;;;10.35;5.20;;;;;;;12.86;nan;100440.03;5018386;28;20205;-77
2023/10/01 02:31:39;;;;;;;9.50;5.97;;;;;;;12.86;nan;100427.72;5018101;28;20179;-78
2023/10/01 02:34:08;;;;;;;7.93;4.93;;;;;;;12.85;nan;100426.00;5018691;28;20221;-77
2023/10/01 02:36:42;;;;;;;9.77;6.03;;;;;;;12.85;nan;100428.63;5017436;28;20533;-77
2023/10/01 02:39:19;;;;;;;10.38;5.90;;;;;;;12.84;nan;100434.84;5017368;28;20535;-79
2023/10/01 02:42:03;;;;;;;9.63;5.85;;;;;;;12.86;nan;100429.50;5015369;28;20287;-79
2023/10/01 02:44:31;;;;;;;8.27;4.30;;;;;;;12.87;nan;100429.38;5015459;28;20297;-79
2023/10/01 02:47:09;;;;;;;9.70;5.28;;;;;;;12.86;nan;100422.44;5012958;28;20206;-79
2023/10/01 02:49:47;;;;;;;10.70;5.05;;;;;;;12.85;nan;100412.81;5015880;28;20698;-79
2023/10/01 02:52:13;;;;;;;9.68;5.63;;;;;;;12.83;nan;100419.97;5014327;28;20198;-79
2023/10/01 02:54:39;;;;;;;6.80;5.18;;;;;;;12.78;nan;100424.69;5012984;28;20210;-79
2023/10/01 02:57:23;;;;;;;5.10;4.60;;;;;;;12.74;nan;100426.63;5015500;28;20205;-79
2023/10/01 03:02:38;;;;;;;10.20;5.38;;;;;;;12.60;nan;100429.25;5027701;28;20953;-79
2023/10/01 03:05:08;;;;;;;10.75;5.53;;;;;;;12.57;nan;100434.69;5015306;28;20202;-80
2023/10/01 03:07:40;;;;;;;10.82;7.25;;;;;;;12.59;nan;100428.41;5010990;28;20426;-80
2023/10/01 03:10:16;;;;;;;11.90;5.97;;;;;;;12.56;nan;100423.31;5014263;28;20202;-79
2023/10/01 03:12:42;;;;;;;6.65;4.85;;;;;;;12.54;nan;100425.19;5014402;28;20198;-79
2023/10/01 03:17:55;;;;;;;10.93;5.68;;;;;;;12.48;nan;100416.81;5011802;28;20563;-80
2023/10/01 03:23:07;;;;;;;13.13;6.40;;;;;;;12.34;nan;100420.22;5015692;28;20206;-80
2023/10/01 03:25:56;;;;;;;11.35;5.50;;;;;;;12.31;nan;100423.03;5012851;28;20987;-79
2023/10/01 03:28:28;;;;;;;8.43;5.40;;;;;;;12.31;nan;100418.63;5015614;28;20655;-79
2023/10/01 03:31:06;;;;;;;8.70;4.22;;;;;;;12.33;nan;100419.38;5011282;28;20951;-79
2023/10/01 03:33:39;;;;;;;8.35;5.35;;;;;;;12.37;nan;100431.44;5015039;28;20628;-79
2023/10/01 03:36:09;;;;;;;7.20;3.97;;;;;;;12.38;nan;100422.59;5012672;28;20210;-80
2023/10/01 03:38:45;;;;;;;9.90;5.68;;;;;;;12.35;nan;100416.66;5011130;28;20207;-79
2023/10/01 03:41:23;;;;;;;11.43;6.05;;;;;;;12.29;nan;100419.66;5014508;28;20721;-79
2023/10/01 03:43:54;;;;;;;12.80;5.00;;;;;;;12.22;nan;100419.16;5015749;28;20221;-79
2023/10/01 03:46:26;;;;;;;7.88;5.45;;;;;;;12.20;nan;100421.00;5012370;28;20213;-79
2023/10/01 03:52:00;;;;;;;8.80;4.78;;;;;;;12.18;nan;100429.03;4980840;28;20300;-79
2023/10/01 03:54:54;;;;;;;9.55;4.38;;;;;;;12.18;nan;100430.81;5013211;28;20289;-80
2023/10/01 03:57:17;;;;;;;9.00;4.75;;;;;;;12.20;nan;100433.34;5013196;28;20210;-79
2023/10/01 03:59:51;;;;;;;10.18;5.97;;;;;;;12.21;nan;100422.72;5013530;28;20195;-79
2023/10/01 04:02:27;;;;;;;8.43;5.18;;;;;;;12.24;nan;100424.34;5013049;28;20316;-80
2023/10/01 04:04:56;;;;;;;9.15;4.97;;;;;;;12.22;nan;100423.56;5014896;28;20218;-79
2023/10/01 04:07:22;;;;;;;9.07;5.20;;;;;;;12.22;nan;100429.69;5011189;28;20215;-79
2023/10/01 04:09:50;;;;;;;8.15;4.70;;;;;;;12.22;nan;100413.03;5011011;28;20614;-79
2023/10/01 04:12:20;;;;;;;7.95;4.28;;;;;;;12.20;nan;100417.53;5013145;28;20209;-79
2023/10/01 04:14:52;;;;;;;9.20;4.57;;;;;;;12.11;nan;100417.13;5012964;28;20207;-79
2023/10/01 04:17:21;;;;;;;8.60;5.15;;;;;;;12.06;nan;100421.81;5011769;28;20207;-80
2023/10/01 04:19:57;;;;;;;9.00;6.05;;;;;;;12.05;nan;100417.50;5014256;28;20206;-80
2023/10/01 04:22:25;;;;;;;10.98;5.22;;;;;;;12.03;nan;100419.34;5014648;28;20236;-80
2023/10/01 04:25:00;;;;;;;13.80;5.55;;;;;;;12.03;nan;100426.41;5010945;28;20226;-79
2023/10/01 04:27:32;;;;;;;8.85;5.38;;;;;;;12.06;nan;100431.50;5012545;28;20184;-80
2023/10/01 04:30:00;;;;;;;10.18;5.55;;;;;;;12.08;nan;100430.47;5012657;28;20228;-80
2023/10/01 04:32:28;;;;;;;10.18;5.03;;;;;;;12.07;nan;100436.69;5014567;28;20202;-79
2023/10/01 04:34:56;;;;;;;7.78;4.72;;;;;;;12.08;nan;100443.66;5014490;28;20214;-80
2023/10/01 04:37:36;;;;;;;10.02;5.43;;;;;;;12.11;nan;100435.56;5012731;28;20431;-80
2023/10/01 04:43:01;;;;;;;6.97;3.92;;;;;;;12.07;nan;100448.97;5010503;28;20211;-80
2023/10/01 04:45:36;;;;;;;7.25;4.20;;;;;;;11.99;nan;100446.81;5013820;28;20577;-79
2023/10/01 04:48:08;;;;;;;4.68;3.67;;;;;;;11.96;nan;100439.06;5013977;28;20267;-80
2023/10/01 04:50:37;;;;;;;8.05;4.50;;;;;;;11.95;nan;100438.22;5010650;28;20194;-80
2023/10/01 04:53:07;;;;;;;8.52;4.13;;;;;;;11.95;nan;100440.84;5010984;28;20215;-80
2023/10/01 04:55:40;;;;;;;8.40;5.10;;;;;;;11.98;nan;100444.25;5014002;28;20206;-80
2023/10/01 04:58:12;;;;;;;9.32;4.10;;;;;;;11.99;nan;100435.41;5017818;28;20194;-79
2023/10/01 05:00:40;;;;;;;11.10;5.53;;;;;;;12.00;nan;100440.59;5015991;28;20757;-80
2023/10/01 05:03:06;;;;;;;7.22;4.10;;;;;;;11.98;nan;100434.56;5012304;28;20252;-80
2023/10/01 05:05:33;;;;;;;13.33;5.03;;;;;;;11.95;nan;100429.47;5011284;28;20941;-80
2023/10/01 05:07:58;;;;;;;9.15;5.22;;;;;;;11.93;nan;100431.34;5013552;28;20228;-79
2023/10/01 05:10:25;;;;;;;6.60;3.73;;;;;;;11.93;nan;100437.44;5011735;28;20202;-80
2023/10/01 05:12:55;;;;;;;7.35;5.05;;;;;;;11.92;nan;100438.38;5012662;28;20582;-79
2023/10/01 05:15:34;;;;;;;12.13;5.78;;;;;;;11.87;nan;100432.53;5012384;28;20248;-80
2023/10/01 05:18:01;;;;;;;7.28;5.15;;;;;;;11.85;nan;100431.72;5011955;28;20213;-80
2023/10/01 05:20:26;;;;;;;7.70;4.45;;;;;;;11.85;nan;100436.16;5015437;28;20218;-80
2023/10/01 05:22:54;;;;;;;7.20;5.47;;;;;;;11.83;nan;100438.03;5013514;28;20198;-80
2023/10/01 05:25:26;;;;;;;11.45;6.55;;;;;;;11.79;nan;100447.03;5012915;28;20210;-80
2023/10/01 05:27:54;;;;;;;11.20;5.60;;;;;;;11.73;nan;100446.41;5012966;28;20209;-79
2023/10/01 05:30:35;;;;;;;12.52;8.27;;;;;;;11.73;nan;100446.41;5012632;28;21105;-80
2023/10/01 05:33:01;;;;;;;12.10;4.63;;;;;;;11.75;nan;100451.63;5012154;28;20198;-80
2023/10/01 05:35:28;;;;;;;9.85;4.85;;;;;;;11.76;nan;100437.50;5011787;28;20202;-79
2023/10/01 05:37:54;;;;;;;9.10;5.60;;;;;;;11.78;nan;100440.91;5013643;28;20237;-80
2023/10/01 05:40:19;;;;;;;8.67;5.77;;;;;;;11.80;nan;100438.19;5010745;28;20206;-79
2023/10/01 05:42:47;;;;;;;10.37;5.83;;;;;;;11.81;nan;100440.75;5014211;28;20221;-80
2023/10/01 05:45:18;;;;;;;11.25;5.63;;;;;;;11.82;nan;100444.22;5010239;28;20217;-79
2023/10/01 05:47:54;;;;;;;7.40;5.10;;;;;;;11.81;nan;100445.16;5012084;28;20191;-80
2023/10/01 05:50:22;;;;;;;8.32;5.50;;;;;;;11.79;nan;100441.75;5013264;28;20282;-80
2023/10/01 05:52:50;;;;;;;10.07;5.97;;;;;;;11.80;nan;100456.59;5011295;28;20230;-80
2023/10/01 05:55:16;;;;;;;9.38;5.45;;;;;;;11.81;nan;100455.69;5011782;28;20407;-80
2023/10/01 05:57:43;;;;;;;7.93;5.85;;;;;;;11.83;nan;100456.47;5012060;28;20214;-80
2023/10/01 06:00:25;;;;;;;11.00;6.28;;;;;;;11.84;nan;100456.34;5013049;28;20202;-79
2023/10/01 06:03:00;;;;;;;11.23;6.85;;;;;;;11.84;nan;100448.47;5014981;28;20206;-80
2023/10/01 06:05:33;;;;;;;9.45;4.88;;;;;;;11.84;nan;100450.25;5014686;28;20210;-79
2023/10/01 06:08:00;;;;;;;7.03;4.22;;;;;;;11.84;nan;100443.19;5015301;28;20206;-79
2023/10/01 06:10:35;;;;;;;8.15;4.47;;;;;;;11.86;nan;100453.69;5013742;28;20202;-80
2023/10/01 06:13:06;;;;;;;8.95;6.60;;;;;;;11.89;nan;100453.50;5015766;28;20340;-79
2023/10/01 06:15:34;;;;;;;11.10;5.30;;;;;;;11.93;nan;100449.75;5017322;28;20790;-80
2023/10/01 06:18:04;;;;;;;11.10;5.70;;;;;;;12.00;nan;100450.28;5014506;28;20214;-79
2023/10/01 06:20:33;;;;;;;8.95;4.60;;;;;;;12.08;nan;100453.34;5014604;28;20285;-80
2023/10/01 06:22:59;;;;;;;9.50;5.93;;;;;;;12.17;nan;100453.66;5013531;28;20203;-80
2023/10/01 06:25:44;;;;;;;10.73;4.75;;;;;;;12.24;nan;100455.94;5014235;28;20272;-79
2023/10/01 06:28:10;;;;;;;12.55;5.22;;;;;;;12.27;nan;100451.34;5014989;28;20284;-79
2023/10/01 06:30:39;;;;;;;10.33;5.30;;;;;;;12.31;nan;100457.28;5014940;28;20289;-80
2023/10/01 06:33:08;;;;;;;9.85;5.50;;;;;;;12.40;nan;100454.13;5016867;28;20225;-80
2023/10/01 06:35:35;;;;;;;10.88;5.45;;;;;;;12.50;nan;100447.41;5016349;28;20336;-79
2023/10/01 06:38:00;;;;;;;11.50;6.50;;;;;;;12.60;nan;100456.44;5017424;28;20956;-80
2023/10/01 06:40:31;;;;;;;10.00;5.27;;;;;;;12.71;nan;100447.06;5014571;28;20213;-79
2023/10/01 06:43:00;;;;;;;10.48;4.95;;;;;;;12.75;nan;100441.53;5010950;28;20756;-79
2023/10/01 06:45:41;;;;;;;6.63;4.18;;;;;;;12.75;nan;100443.31;5011942;28;20210;-80
2023/10/01 06:48:10;;;;;;;4.57;3.05;;;;;;;12.73;nan;100446.03;5013931;28;20206;-79
2023/10/01 06:50:46;;;;;;;4.47;3.67;;;;;;;12.78;nan;100443.97;5015237;28;20198;-79
2023/10/01 06:53:13;;;;;;;10.68;5.10;;;;;;;12.87;nan;100447.84;5016440;28;20206;-79
2023/10/01 06:55:39;;;;;;;7.72;5.00;;;;;;;12.98;nan;100445.41;5013865;28;20226;-79
2023/10/01 06:58:06;;;;;;;9.63;5.47;;;;;;;13.10;nan;100435.94;5016416;28;20273;-80
2023/10/01 07:00:35;;;;;;;8.45;5.35;;;;;;;13.22;nan;100443.06;5015096;28;20206;-79
2023/10/01 07:03:21;;;;;;;13.90;5.50;;;;;;;13.37;nan;100443.97;5013012;28;20603;-79
2023/10/01 07:05:51;;;;;;;7.63;5.00;;;;;;;13.49;nan;100447.63;5015112;28;20221;-79
2023/10/01 07:08:18;;;;;;;11.32;6.10;;;;;;;13.62;nan;100451.19;5015938;28;20203;-79
2023/10/01 07:10:50;;;;;;;9.40;5.28;;;;;;;13.74;nan;100444.28;5015817;28;20194;-79
2023/10/01 07:13:16;;;;;;;8.93;5.20;;;;;;;13.87;nan;100455.75;5012840;28;20310;-79
2023/10/01 07:15:46;;;;;;;11.25;6.72;;;;;;;13.97;nan;100456.03;5014950;28;20206;-79
2023/10/01 07:18:19;;;;;;;6.32;5.13;;;;;;;14.08;nan;100455.34;5011841;28;20202;-79
2023/10/01 07:20:49;;;;;;;8.80;5.95;;;;;;;14.18;nan;100448.53;5014968;28;20202;-79
2023/10/01 07:23:15;;;;;;;11.95;6.47;;;;;;;14.27;nan;100449.72;5014783;28;20260;-79
2023/10/01 07:25:43;;;;;;;11.40;6.17;;;;;;;14.36;nan;100451.72;5012074;28;20233;-79
2023/10/01 07:28:12;;;;;;;11.05;5.53;;;;;;;14.48;nan;100460.66;5011506;28;20202;-79
2023/10/01 07:31:01;;;;;;;12.15;7.03;;;;;;;14.60;nan;100451.94;5011960;28;20289;-79
2023/10/01 07:33:28;;;;;;;10.45;6.20;;;;;;;14.67;nan;100455.88;5013087;28;20308;-79
2023/10/01 07:36:00;;;;;;;10.95;4.90;;;;;;;14.74;nan;100453.66;5015285;28;20793;-79
2023/10/01 07:38:46;;;;;;;11.30;6.18;;;;;;;14.84;nan;100462.66;5015977;28;20244;-79
2023/10/01 07:41:23;;;;;;;9.10;5.88;;;;;;;14.93;nan;100462.06;5011562;28;20827;-79
2023/10/01 07:43:49;;;;;;;15.38;5.60;;;;;;;15.03;nan;100464.91;5019678;28;20223;-80
2023/10/01 07:46:15;;;;;;;12.77;5.23;;;;;;;15.13;nan;100465.13;5015403;28;20207;-80
2023/10/01 07:48:47;;;;;;;10.23;5.43;;;;;;;15.23;nan;100459.09;5015916;28;20488;-80
2023/10/01 07:51:28;;;;;;;10.27;6.57;;;;;;;15.37;nan;100460.78;5009573;28;20222;-79
2023/10/01 07:53:57;;;;;;;15.73;6.85;;;;;;;15.67;nan;100460.41;5008130;28;20218;-79
2023/10/01 07:56:23;;;;;;;11.45;5.70;;;;;;;16.55;nan;100460.19;5004879;28;20201;-79
2023/10/01 07:58:57;;;;;;;10.30;5.97;;;;;;;17.66;nan;100457.84;5005921;28;20230;-80
2023/10/01 08:01:36;;;;;;;9.53;6.63;;;;;;;18.73;nan;100448.19;5009025;28;20556;-80
2023/10/01 08:04:06;;;;;;;12.97;6.63;;;;;;;19.60;nan;100450.50;5010723;28;21079;-80
2023/10/01 08:06:41;;;;;;;9.87;7.13;;;;;;;20.18;nan;100449.00;5013245;28;20506;-80
2023/10/01 08:09:12;;;;;;;8.93;5.63;;;;;;;20.68;nan;100452.38;5011378;28;20436;-80
2023/10/01 08:14:26;;;;;;;10.70;6.20;;;;;;;22.34;nan;100451.72;5006463;28;21181;-80
2023/10/01 08:16:53;;;;;;;9.50;6.10;;;;;;;22.92;nan;100448.47;5009630;28;20519;-79
2023/10/01 08:19:20;;;;;;;11.20;6.10;;;;;;;23.47;nan;100445.50;5010759;28;20592;-79
2023/10/01 08:21:53;;;;;;;10.33;5.40;;;;;;;23.91;nan;100439.97;5008896;28;20466;-80
2023/10/01 08:24:33;;;;;;;9.17;6.03;;;;;;;24.28;nan;100449.44;5006126;28;20472;-79
2023/10/01 08:27:04;;;;;;;12.37;7.53;;;;;;;24.50;nan;100448.81;5005576;28;20560;-77
2023/10/01 08:29:59;;;;;;;10.27;5.90;;;;;;;24.58;nan;100441.78;5007179;28;20411;-76
2023/10/01 08:32:22;;;;;;;11.80;5.53;;;;;;;24.85;nan;100448.63;5008995;28;20450;-77
2023/10/01 08:35:05;;;;;;;6.40;5.30;;;;;;;25.23;nan;100452.44;5010126;28;20419;-77
2023/10/01 08:37:31;;;;;;;13.48;7.40;;;;;;;25.54;nan;100451.66;5009116;28;20407;-77
2023/10/01 08:42:36;;;;;;;10.00;6.10;;;;;;;25.75;nan;100459.97;5020908;28;20940;-79
2023/10/01 08:45:05;;;;;;;11.20;5.33;;;;;;;25.96;nan;100459.41;5021366;28;20471;-77
2023/10/01 08:47:35;;;;;;;10.10;6.97;;;;;;;26.00;nan;100459.88;5026348;28;20464;-78
2023/10/01 08:50:17;;;;;;;11.60;6.50;;;;;;;26.15;nan;100455.41;5022264;28;20570;-77
2023/10/01 08:52:52;;;;;;;7.20;5.00;;;;;;;26.43;nan;100449.50;5025813;28;20448;-78
2023/10/01 08:55:40;;;;;;;10.30;6.30;;;;;;;26.78;nan;100439.13;5039327;22;20473;-82
2023/10/01 08:58:27;;;;;;;11.43;5.87;;;;;;;26.57;nan;100440.66;5032130;28;20452;-79
2023/10/01 09:01:11;;;;;;;10.43;5.57;;;;;;;26.30;nan;100435.78;5034658;28;20427;-79
2023/10/01 09:03:38;;;;;;;13.60;6.00;;;;;;;26.15;nan;100441.94;5035295;28;20579;-82
2023/10/01 09:06:04;;;;;;;9.95;6.88;;;;;;;25.96;nan;100437.88;5029170;28;20448;-77
2023/10/01 09:08:42;;;;;;;8.47;5.23;;;;;;;25.62;nan;100440.88;5015268;28;20194;-79
2023/10/01 09:11:13;;;;;;;11.30;5.90;;;;;;;25.35;nan;100436.78;5014616;28;20968;-79
2023/10/01 09:14:14;;;;;;;9.97;6.20;;;;;;;25.19;nan;100434.97;5019495;28;20501;-82
2023/10/01 09:16:44;;;;;;;10.10;5.43;;;;;;;25.19;nan;100434.13;5014265;28;20476;-83
2023/10/01 09:19:30;;;;;;;12.00;6.20;;;;;;;25.09;nan;100437.84;5014507;28;20423;-82
2023/10/01 09:22:22;;;;;;;8.77;5.00;;;;;;;24.73;nan;100434.69;5013994;28;20435;-82
2023/10/01 09:25:01;;;;;;;9.40;6.00;;;;;;;24.35;nan;100437.00;5009885;28;20475;-83
2023/10/01 09:27:30;;;;;;;12.87;6.60;;;;;;;23.85;nan;100433.41;5009252;28;20552;-83
2023/10/01 09:32:51;;;;;;;8.77;5.40;;;;;;;23.27;nan;100442.19;5009317;28;20213;-81
2023/10/01 09:35:38;;;;;;;10.70;5.93;;;;;;;23.08;nan;100440.56;5009278;28;20539;-79
2023/10/01 09:38:10;;;;;;;9.13;5.13;;;;;;;23.00;nan;100435.16;5018394;28;20890;-79
2023/10/01 09:40:44;;;;;;;8.80;5.27;;;;;;;23.00;nan;100428.97;5021813;28;20469;-79
2023/10/01 09:43:24;;;;;;;8.30;5.13;;;;;;;22.99;nan;100433.50;5023380;28;20431;-80
2023/10/01 09:45:51;;;;;;;12.30;6.67;;;;;;;23.11;nan;100431.38;5017619;28;20470;-80
2023/10/01 09:48:32;;;;;;;11.33;5.60;;;;;;;23.21;nan;100423.25;5019517;28;20437;-80
2023/10/01 09:51:08;;;;;;;9.30;6.13;;;;;;;23.21;nan;100420.56;5016813;28;20614;-80
2023/10/01 09:53:54;;;;;;;7.37;4.47;;;;;;;23.29;nan;100416.06;5017427;28;21047;-80
2023/10/01 09:59:18;;;;;;;13.07;6.83;;;;;;;23.32;nan;100415.75;5004951;28;20475;-81
2023/10/01 10:01:45;;;;;;;7.80;4.67;;;;;;;23.34;nan;100407.56;5016016;28;20946;-81
2023/10/01 10:04:11;;;;;;;12.67;6.93;;;;;;;23.38;nan;100407.06;5016066;28;20476;-80
2023/10/01 10:06:41;;;;;;;10.80;5.83;;;;;;;23.40;nan;100401.53;5013309;28;20450;-80
2023/10/01 10:09:26;;;;;;;10.87;5.77;;;;;;;23.44;nan;100402.91;5015271;28;20449;-80
2023/10/01 10:11:52;;;;;;;10.77;6.60;;;;;;;23.29;nan;100401.84;5010899;28;20438;-80
2023/10/01 10:14:26;;;;;;;12.57;6.30;;;;;;;23.24;nan;100396.09;5012918;28;20490;-78
2023/10/01 10:17:07;;;;;;;9.77;5.40;;;;;;;23.36;nan;100386.78;5015216;28;20532;-79
2023/10/01 10:19:53;;;;;;;9.17;5.10;;;;;;;23.44;nan;100394.00;5011305;28;20459;-78
2023/10/01 10:22:18;;;;;;;7.20;5.13;;;;;;;23.40;nan;100383.59;5013720;28;20415;-81
2023/10/01 10:24:46;;;;;;;8.33;5.43;;;;;;;23.51;nan;100374.44;5017550;28;20460;-80
2023/10/01 10:27:31;;;;;;;9.90;5.73;;;;;;;23.67;nan;100372.81;5015930;28;20705;-79
2023/10/01 10:30:06;;;;;;;8.40;5.23;;;;;;;23.67;nan;100372.81;5017484;28;20528;-81
2023/10/01 10:32:42;;;;;;;8.70;5.47;;;;;;;23.59;nan;100365.56;5021433;28;20481;-82
2023/10/01 10:35:14;;;;;;;12.37;5.70;;;;;;;23.60;nan;100359.19;5020990;28;20737;-81
2023/10/01 10:37:39;;;;;;;11.97;5.43;;;;;;;23.69;nan;100365.44;5020125;28;20607;-81
2023/10/01 10:42:41;;;;;;;6.73;4.70;;;;;;;23.66;nan;100363.09;5015131;28;20205;-81
2023/10/01 10:45:20;;;;;;;9.77;5.83;;;;;;;23.76;nan;100366.47;5016982;28;20706;-81
2023/10/01 10:48:02;;;;;;;9.00;5.67;;;;;;;23.85;nan;100368.19;5018429;28;20467;-81
2023/10/01 10:50:53;;;;;;;10.17;5.80;;;;;;;24.01;nan;100365.53;5017891;28;20457;-81
2023/10/01 10:53:26;;;;;;;10.03;5.63;;;;;;;24.09;nan;100359.34;5016132;28;20432;-80
2023/10/01 10:56:08;;;;;;;7.27;4.80;;;;;;;24.16;nan;100351.44;5015934;28;20798;-81
2023/10/01 10:58:47;;;;;;;11.17;5.07;;;;;;;24.13;nan;100349.09;5018757;28;20539;-80
2023/10/01 11:01:18;;;;;;;8.83;5.70;;;;;;;24.11;nan;100348.41;5016935;28;20432;-79
2023/10/01 11:04:01;;;;;;;7.10;4.97;;;;;;;24.06;nan;100340.84;5017474;28;20864;-82
2023/10/01 11:06:39;;;;;;;11.40;6.40;;;;;;;24.10;nan;100341.38;5015310;28;20469;-82
2023/10/01 11:09:22;;;;;;;10.00;6.00;;;;;;;24.19;nan;100335.00;5017310;28;21019;-81
2023/10/01 11:11:48;;;;;;;9.50;5.70;;;;;;;24.15;nan;100339.88;5016485;28;20437;-80
2023/10/01 11:14:20;;;;;;;13.90;7.60;;;;;;;24.18;nan;100336.00;5018414;28;20457;-82
2023/10/01 11:16:47;;;;;;;9.50;5.70;;;;;;;24.20;nan;100329.47;5014820;28;20435;-81
2023/10/01 11:19:16;;;;;;;10.03;5.80;;;;;;;24.19;nan;100333.13;5016584;28;20460;-80
2023/10/01 11:21:58;;;;;;;10.40;5.60;;;;;;;24.19;nan;100332.31;5020668;28;20436;-81
2023/10/01 11:24:33;;;;;;;9.47;5.00;;;;;;;24.25;nan;100328.97;5021776;28;20448;-81
2023/10/01 11:27:43;;;;;;;10.70;5.90;;;;;;;24.28;nan;100329.47;5022159;28;20471;-80
2023/10/01 11:30:15;;;;;;;6.87;4.80;;;;;;;24.31;nan;100328.28;5023230;28;20564;-80
2023/10/01 11:36:06;;;;;;;8.87;6.33;;;;;;;24.34;nan;100309.16;4972102;28;20708;-78
2023/10/01 11:38:34;;;;;;;9.20;5.53;;;;;;;24.40;nan;100313.81;4989267;28;20595;-80
2023/10/01 11:41:07;;;;;;;10.13;5.73;;;;;;;24.42;nan;100317.19;5011082;28;20492;-79
2023/10/01 11:44:00;;;;;;;10.97;5.97;;;;;;;24.42;nan;100311.81;5023955;28;20458;-79
2023/10/01 11:46:34;;;;;;;8.47;5.20;;;;;;;24.45;nan;100316.88;5009912;28;20679;-81
2023/10/01 11:49:06;;;;;;;8.83;5.33;;;;;;;24.47;nan;100301.44;5022940;28;20441;-79
2023/10/01 11:51:54;;;;;;;9.27;5.03;;;;;;;24.51;nan;100297.38;5018945;28;20460;-79
2023/10/01 11:54:25;;;;;;;6.37;5.13;;;;;;;24.53;nan;100293.72;5025502;28;20427;-81
2023/10/01 11:57:04;;;;;;;9.40;5.20;;;;;;;24.51;nan;100292.00;5026766;28;20458;-82
2023/10/01 11:59:36;;;;;;;10.03;4.53;;;;;;;24.53;nan;100288.34;5000096;28;21046;-81
2023/10/01 12:02:20;;;;;;;12.73;5.70;;;;;;;24.50;nan;100279.59;5014642;28;20426;-81
2023/10/01 12:05:00;;;;;;;15.30;4.87;;;;;;;24.52;nan;100279.44;5017240;28;20482;-81
2023/10/01 12:07:39;;;;;;;16.67;5.93;;;;;;;24.53;nan;100278.44;5019330;28;20473;-81
2023/10/01 12:10:07;;;;;;;12.70;6.20;;;;;;;24.54;nan;100274.72;5016127;28;20426;-80
2023/10/01 12:12:39;;;;;;;11.53;4.70;;;;;;;24.55;nan;100275.56;5001814;28;20707;-82
2023/10/01 12:17:49;;;;;;;6.70;4.30;;;;;;;24.59;nan;100255.41;5017986;28;20884;-81
2023/10/01 12:20:28;;;;;;;8.83;5.23;;;;;;;24.58;nan;100256.44;5020185;28;20429;-81
2023/10/01 12:23:10;;;;;;;9.67;4.93;;;;;;;24.62;nan;100255.06;5018861;28;20204;-80
2023/10/01 12:25:57;;;;;;;10.67;5.00;;;;;;;24.66;nan;100240.28;5018318;28;20476;-80
2023/10/01 12:28:25;;;;;;;10.30;6.33;;;;;;;24.73;nan;100249.31;5015417;28;20488;-81
2023/10/01 12:30:57;;;;;;;9.17;5.90;;;;;;;24.80;nan;100244.09;5015993;28;20468;-77
2023/10/01 12:33:24;;;;;;;13.93;5.90;;;;;;;24.85;nan;100244.41;5011812;28;20534;-80
2023/10/01 12:35:50;;;;;;;8.30;4.60;;;;;;;24.87;nan;100235.16;5015672;28;20453;-79
2023/10/01 12:40:43;;;;;;;10.30;4.87;;;;;;;24.93;nan;100230.94;5016534;28;20219;-80